sensor_id;sensor_type;location;lat;lon;timestamp;pressure;altitude;pressure_sealevel;temperature;humidity
47761;BME280;33524;55.434;38.520;2023-06-01T00:02:26;99904.03;;;6.42;74.68
47761;BME280;33524;55.434;38.520;2023-06-01T00:04:55;99917.47;;;6.50;74.33
47761;BME280;33524;55.434;38.520;2023-06-01T00:07:23;99915.06;;;6.47;74.06
47761;BME280;33524;55.434;38.520;2023-06-01T00:09:51;99916.47;;;6.24;75.04
47761;BME280;33524;55.434;38.520;2023-06-01T00:12:20;99917.31;;;6.39;74.64
47761;BME280;33524;55.434;38.520;2023-06-01T00:14:48;99920.19;;;6.34;74.72
47761;BME280;33524;55.434;38.520;2023-06-01T00:17:16;99915.72;;;6.22;74.97
47761;BME280;33524;55.434;38.520;2023-06-01T00:19:44;99910.22;;;6.41;74.35
47761;BME280;33524;55.434;38.520;2023-06-01T00:22:13;99904.16;;;6.26;74.43
47761;BME280;33524;55.434;38.520;2023-06-01T00:24:41;99913.94;;;6.37;74.22
47761;BME280;33524;55.434;38.520;2023-06-01T00:27:09;99901.06;;;6.34;74.40
47761;BME280;33524;55.434;38.520;2023-06-01T00:29:37;99884.59;;;6.19;74.33
47761;BME280;33524;55.434;38.520;2023-06-01T00:32:06;99901.19;;;6.18;74.52
47761;BME280;33524;55.434;38.520;2023-06-01T00:34:34;99907.81;;;6.09;75.30
47761;BME280;33524;55.434;38.520;2023-06-01T00:37:02;99910.16;;;5.99;75.45
47761;BME280;33524;55.434;38.520;2023-06-01T00:39:31;99903.16;;;5.85;76.09
47761;BME280;33524;55.434;38.520;2023-06-01T00:41:59;99878.94;;;5.98;75.05
47761;BME280;33524;55.434;38.520;2023-06-01T00:44:27;99889.00;;;6.18;74.62
47761;BME280;33524;55.434;38.520;2023-06-01T00:46:56;99896.63;;;6.21;74.54
47761;BME280;33524;55.434;38.520;2023-06-01T00:49:27;99897.81;;;6.16;74.70
47761;BME280;33524;55.434;38.520;2023-06-01T00:51:55;99902.78;;;6.06;75.04
47761;BME280;33524;55.434;38.520;2023-06-01T00:54:23;99906.16;;;6.08;74.88
47761;BME280;33524;55.434;38.520;2023-06-01T00:56:52;99894.00;;;5.93;75.30
47761;BME280;33524;55.434;38.520;2023-06-01T00:59:20;99897.19;;;5.83;75.83
47761;BME280;33524;55.434;38.520;2023-06-01T01:01:48;99902.31;;;5.71;76.30
47761;BME280;33524;55.434;38.520;2023-06-01T01:04:17;99879.94;;;5.66;75.75
47761;BME280;33524;55.434;38.520;2023-06-01T01:07:11;99900.16;;;5.92;75.49
47761;BME280;33524;55.434;38.520;2023-06-01T01:13:08;99902.19;;;5.86;74.91
47761;BME280;33524;55.434;38.520;2023-06-01T01:16:14;99898.38;;;5.78;75.91
47761;BME280;33524;55.434;38.520;2023-06-01T01:18:44;99896.16;;;5.86;75.39
47761;BME280;33524;55.434;38.520;2023-06-01T01:21:15;99892.03;;;5.68;75.91
47761;BME280;33524;55.434;38.520;2023-06-01T01:24:42;99888.19;;;5.44;76.90
47761;BME280;33524;55.434;38.520;2023-06-01T01:30:22;99890.62;;;5.62;76.43
47761;BME280;33524;55.434;38.520;2023-06-01T01:32:55;99898.66;;;5.59;76.84
47761;BME280;33524;55.434;38.520;2023-06-01T01:35:26;99902.84;;;5.61;76.76
47761;BME280;33524;55.434;38.520;2023-06-01T01:37:56;99892.69;;;5.85;75.66
47761;BME280;33524;55.434;38.520;2023-06-01T01:40:24;99897.38;;;5.95;75.20
47761;BME280;33524;55.434;38.520;2023-06-01T01:42:53;99894.69;;;6.11;74.47
47761;BME280;33524;55.434;38.520;2023-06-01T01:45:23;99898.38;;;6.21;74.27
47761;BME280;33524;55.434;38.520;2023-06-01T01:48:19;99892.03;;;6.25;74.04
47761;BME280;33524;55.434;38.520;2023-06-01T01:50:56;99892.03;;;6.25;73.75
47761;BME280;33524;55.434;38.520;2023-06-01T01:53:27;99898.38;;;6.35;73.74
47761;BME280;33524;55.434;38.520;2023-06-01T01:55:58;99898.16;;;6.38;73.62
47761;BME280;33524;55.434;38.520;2023-06-01T01:58:28;99899.56;;;6.44;73.47
47761;BME280;33524;55.434;38.520;2023-06-01T02:00:56;99891.72;;;6.44;73.48
47761;BME280;33524;55.434;38.520;2023-06-01T02:03:26;99898.44;;;6.48;73.45
47761;BME280;33524;55.434;38.520;2023-06-01T02:05:54;99893.66;;;6.55;73.19
47761;BME280;33524;55.434;38.520;2023-06-01T02:08:23;99865.69;;;6.42;73.06
47761;BME280;33524;55.434;38.520;2023-06-01T02:10:51;99865.81;;;6.41;73.11
47761;BME280;33524;55.434;38.520;2023-06-01T02:13:20;99899.53;;;6.58;73.32
47761;BME280;33524;55.434;38.520;2023-06-01T02:15:48;99900.91;;;6.64;73.20
47761;BME280;33524;55.434;38.520;2023-06-01T02:18:17;99909.28;;;6.69;73.12
47761;BME280;33524;55.434;38.520;2023-06-01T02:21:05;99902.63;;;6.78;72.79
47761;BME280;33524;55.434;38.520;2023-06-01T02:23:34;99907.25;;;6.87;72.75
47761;BME280;33524;55.434;38.520;2023-06-01T02:26:03;99906.78;;;6.95;72.63
47761;BME280;33524;55.434;38.520;2023-06-01T02:28:31;99910.88;;;6.99;72.45
47761;BME280;33524;55.434;38.520;2023-06-01T02:30:59;99907.63;;;7.08;72.27
47761;BME280;33524;55.434;38.520;2023-06-01T02:33:29;99909.19;;;7.11;72.15
47761;BME280;33524;55.434;38.520;2023-06-01T02:35:57;99920.00;;;7.19;72.11
47761;BME280;33524;55.434;38.520;2023-06-01T02:38:25;99927.34;;;7.26;71.99
47761;BME280;33524;55.434;38.520;2023-06-01T02:40:54;99928.00;;;7.30;72.17
47761;BME280;33524;55.434;38.520;2023-06-01T02:43:22;99925.72;;;7.38;71.98
47761;BME280;33524;55.434;38.520;2023-06-01T02:45:50;99927.78;;;7.46;72.04
47761;BME280;33524;55.434;38.520;2023-06-01T02:48:19;99931.78;;;7.52;71.82
47761;BME280;33524;55.434;38.520;2023-06-01T02:50:47;99931.38;;;7.58;71.95
47761;BME280;33524;55.434;38.520;2023-06-01T02:53:15;99936.81;;;7.67;72.14
47761;BME280;33524;55.434;38.520;2023-06-01T02:55:44;99935.16;;;7.79;71.89
47761;BME280;33524;55.434;38.520;2023-06-01T02:58:13;99933.06;;;7.84;72.19
47761;BME280;33524;55.434;38.520;2023-06-01T03:00:45;99932.22;;;7.97;71.63
47761;BME280;33524;55.434;38.520;2023-06-01T03:03:14;99931.47;;;8.07;71.54
47761;BME280;33524;55.434;38.520;2023-06-01T03:05:43;99935.31;;;8.27;70.82
47761;BME280;33524;55.434;38.520;2023-06-01T03:08:13;99931.09;;;8.38;70.55
47761;BME280;33524;55.434;38.520;2023-06-01T03:10:42;99915.59;;;8.35;70.48
47761;BME280;33524;55.434;38.520;2023-06-01T03:13:11;99939.66;;;8.65;70.03
47761;BME280;33524;55.434;38.520;2023-06-01T03:15:39;99938.59;;;8.68;73.01
47761;BME280;33524;55.434;38.520;2023-06-01T03:18:08;99936.94;;;8.91;69.71
47761;BME280;33524;55.434;38.520;2023-06-01T03:20:39;99938.22;;;9.09;70.03
47761;BME280;33524;55.434;38.520;2023-06-01T03:23:08;99931.59;;;9.28;68.82
47761;BME280;33524;55.434;38.520;2023-06-01T03:25:36;99942.16;;;9.50;68.46
47761;BME280;33524;55.434;38.520;2023-06-01T03:28:04;99922.84;;;9.52;68.12
47761;BME280;33524;55.434;38.520;2023-06-01T03:30:33;99939.34;;;9.87;67.42
47761;BME280;33524;55.434;38.520;2023-06-01T03:33:01;99954.66;;;10.05;67.05
47761;BME280;33524;55.434;38.520;2023-06-01T03:35:31;99929.69;;;10.10;66.86
47761;BME280;33524;55.434;38.520;2023-06-01T03:37:59;99946.44;;;10.43;66.39
47761;BME280;33524;55.434;38.520;2023-06-01T03:40:27;99937.09;;;10.62;65.81
47761;BME280;33524;55.434;38.520;2023-06-01T03:42:56;99935.66;;;11.01;67.04
47761;BME280;33524;55.434;38.520;2023-06-01T03:45:24;99942.75;;;11.22;66.26
47761;BME280;33524;55.434;38.520;2023-06-01T03:47:52;99942.97;;;11.51;66.37
47761;BME280;33524;55.434;38.520;2023-06-01T03:50:21;99941.31;;;11.71;64.80
47761;BME280;33524;55.434;38.520;2023-06-01T03:52:50;99942.59;;;11.98;65.03
47761;BME280;33524;55.434;38.520;2023-06-01T03:55:18;99945.41;;;12.06;64.62
47761;BME280;33524;55.434;38.520;2023-06-01T03:57:49;99938.72;;;12.32;64.45
47761;BME280;33524;55.434;38.520;2023-06-01T04:00:17;99934.19;;;12.54;64.74
47761;BME280;33524;55.434;38.520;2023-06-01T04:02:55;99937.12;;;12.70;64.24
47761;BME280;33524;55.434;38.520;2023-06-01T04:05:25;99930.50;;;12.86;63.86
47761;BME280;33524;55.434;38.520;2023-06-01T04:07:55;99929.94;;;13.02;63.66
47761;BME280;33524;55.434;38.520;2023-06-01T04:10:23;99925.22;;;13.25;63.48
47761;BME280;33524;55.434;38.520;2023-06-01T04:12:52;99926.34;;;13.51;63.67
47761;BME280;33524;55.434;38.520;2023-06-01T04:15:23;99921.41;;;13.76;63.71
47761;BME280;33524;55.434;38.520;2023-06-01T04:17:51;99928.41;;;14.05;62.77
47761;BME280;33524;55.434;38.520;2023-06-01T04:20:20;99928.97;;;14.36;62.32
47761;BME280;33524;55.434;38.520;2023-06-01T04:22:48;99929.75;;;14.56;61.58
47761;BME280;33524;55.434;38.520;2023-06-01T04:25:17;99928.34;;;14.80;61.17
47761;BME280;33524;55.434;38.520;2023-06-01T04:27:49;99925.47;;;14.91;60.90
47761;BME280;33524;55.434;38.520;2023-06-01T04:30:20;99931.53;;;15.01;60.88
47761;BME280;33524;55.434;38.520;2023-06-01T04:32:50;99924.63;;;15.26;60.91
47761;BME280;33524;55.434;38.520;2023-06-01T04:35:20;99924.50;;;15.54;60.40
47761;BME280;33524;55.434;38.520;2023-06-01T04:37:48;99919.72;;;15.76;60.35
47761;BME280;33524;55.434;38.520;2023-06-01T04:40:16;99927.66;;;16.02;59.26
47761;BME280;33524;55.434;38.520;2023-06-01T04:42:46;99917.53;;;16.31;58.66
47761;BME280;33524;55.434;38.520;2023-06-01T04:45:17;99907.47;;;16.60;58.32
47761;BME280;33524;55.434;38.520;2023-06-01T04:47:47;99922.84;;;16.99;57.36
47761;BME280;33524;55.434;38.520;2023-06-01T04:50:16;99912.38;;;17.13;57.49
47761;BME280;33524;55.434;38.520;2023-06-01T04:52:45;99915.72;;;17.24;56.99
47761;BME280;33524;55.434;38.520;2023-06-01T04:55:13;99919.88;;;17.59;56.64
47761;BME280;33524;55.434;38.520;2023-06-01T04:57:43;99915.69;;;17.73;56.47
47761;BME280;33524;55.434;38.520;2023-06-01T05:00:12;99923.09;;;18.02;55.90
47761;BME280;33524;55.434;38.520;2023-06-01T05:02:42;99923.88;;;18.27;55.65
47761;BME280;33524;55.434;38.520;2023-06-01T05:05:12;99925.78;;;18.42;55.21
47761;BME280;33524;55.434;38.520;2023-06-01T05:07:41;99913.81;;;18.77;54.73
47761;BME280;33524;55.434;38.520;2023-06-01T05:10:13;99911.13;;;19.08;54.09
47761;BME280;33524;55.434;38.520;2023-06-01T05:12:42;99907.66;;;19.23;53.96
47761;BME280;33524;55.434;38.520;2023-06-01T05:15:22;99910.25;;;19.31;53.80
47761;BME280;33524;55.434;38.520;2023-06-01T05:18:03;99911.47;;;19.81;53.09
47761;BME280;33524;55.434;38.520;2023-06-01T05:20:31;99896.00;;;20.06;52.50
47761;BME280;33524;55.434;38.520;2023-06-01T05:22:59;99906.56;;;20.29;51.98
47761;BME280;33524;55.434;38.520;2023-06-01T05:25:28;99914.91;;;20.56;51.67
47761;BME280;33524;55.434;38.520;2023-06-01T05:27:57;99904.09;;;20.79;51.11
47761;BME280;33524;55.434;38.520;2023-06-01T05:30:26;99902.81;;;20.75;51.89
47761;BME280;33524;55.434;38.520;2023-06-01T05:33:06;99899.00;;;21.06;51.00
47761;BME280;33524;55.434;38.520;2023-06-01T05:35:34;99890.56;;;21.30;50.46
47761;BME280;33524;55.434;38.520;2023-06-01T05:38:16;99892.44;;;21.08;51.36
47761;BME280;33524;55.434;38.520;2023-06-01T05:40:45;99902.47;;;21.77;49.95
47761;BME280;33524;55.434;38.520;2023-06-01T05:43:14;99893.53;;;21.99;49.03
47761;BME280;33524;55.434;38.520;2023-06-01T05:45:43;99888.69;;;21.81;49.67
47761;BME280;33524;55.434;38.520;2023-06-01T05:48:12;99899.03;;;22.25;48.74
47761;BME280;33524;55.434;38.520;2023-06-01T05:50:45;99890.12;;;22.66;48.12
47761;BME280;33524;55.434;38.520;2023-06-01T05:53:14;99893.47;;;22.95;47.41
47761;BME280;33524;55.434;38.520;2023-06-01T05:55:42;99898.41;;;22.91;47.27
47761;BME280;33524;55.434;38.520;2023-06-01T05:58:11;99895.59;;;22.45;47.50
47761;BME280;33524;55.434;38.520;2023-06-01T06:00:41;99891.03;;;23.47;47.51
47761;BME280;33524;55.434;38.520;2023-06-01T06:03:34;99892.84;;;23.86;46.43
47761;BME280;33524;55.434;38.520;2023-06-01T06:06:03;99891.41;;;22.97;47.50
47761;BME280;33524;55.434;38.520;2023-06-01T06:08:46;99891.41;;;23.77;47.16
47761;BME280;33524;55.434;38.520;2023-06-01T06:11:26;99881.50;;;23.84;47.12
47761;BME280;33524;55.434;38.520;2023-06-01T06:13:54;99882.97;;;23.47;47.87
47761;BME280;33524;55.434;38.520;2023-06-01T06:16:23;99887.19;;;24.08;47.10
47761;BME280;33524;55.434;38.520;2023-06-01T06:19:04;99874.38;;;24.93;44.42
47761;BME280;33524;55.434;38.520;2023-06-01T06:21:33;99878.94;;;24.93;45.47
47761;BME280;33524;55.434;38.520;2023-06-01T06:24:01;99871.28;;;24.90;40.89
47761;BME280;33524;55.434;38.520;2023-06-01T06:26:30;99878.91;;;24.16;44.67
47761;BME280;33524;55.434;38.520;2023-06-01T06:29:10;99861.22;;;25.10;45.20
47761;BME280;33524;55.434;38.520;2023-06-01T06:31:39;99865.16;;;23.92;46.90
47761;BME280;33524;55.434;38.520;2023-06-01T06:34:07;99866.53;;;24.60;46.77
47761;BME280;33524;55.434;38.520;2023-06-01T06:36:35;99859.94;;;24.88;46.03
47761;BME280;33524;55.434;38.520;2023-06-01T06:39:04;99862.19;;;26.22;42.71
47761;BME280;33524;55.434;38.520;2023-06-01T06:41:32;99857.78;;;25.72;37.92
47761;BME280;33524;55.434;38.520;2023-06-01T06:44:01;99867.16;;;22.37;36.64
47761;BME280;33524;55.434;38.520;2023-06-01T06:46:29;99865.56;;;21.16;45.27
47761;BME280;33524;55.434;38.520;2023-06-01T06:48:57;99855.87;;;22.07;43.70
47761;BME280;33524;55.434;38.520;2023-06-01T06:51:37;99859.19;;;23.84;43.58
47761;BME280;33524;55.434;38.520;2023-06-01T06:54:06;99853.69;;;23.25;40.92
47761;BME280;33524;55.434;38.520;2023-06-01T06:56:34;99855.56;;;22.30;44.09
47761;BME280;33524;55.434;38.520;2023-06-01T06:59:02;99848.66;;;23.82;49.18
47761;BME280;33524;55.434;38.520;2023-06-01T07:01:35;99857.72;;;23.74;39.52
47761;BME280;33524;55.434;38.520;2023-06-01T07:04:08;99855.00;;;24.01;41.33
47761;BME280;33524;55.434;38.520;2023-06-01T07:06:37;99850.28;;;23.83;49.01
47761;BME280;33524;55.434;38.520;2023-06-01T07:09:05;99854.16;;;20.80;50.40
47761;BME280;33524;55.434;38.520;2023-06-01T07:11:34;99849.59;;;22.34;42.74
47761;BME280;33524;55.434;38.520;2023-06-01T07:14:02;99850.09;;;22.71;37.50
47761;BME280;33524;55.434;38.520;2023-06-01T07:16:30;99840.69;;;23.29;35.88
47761;BME280;33524;55.434;38.520;2023-06-01T07:18:58;99848.28;;;22.98;45.42
47761;BME280;33524;55.434;38.520;2023-06-01T07:21:27;99854.78;;;21.94;36.53
47761;BME280;33524;55.434;38.520;2023-06-01T07:23:55;99835.84;;;24.74;46.46
47761;BME280;33524;55.434;38.520;2023-06-01T07:26:23;99832.19;;;26.48;43.09
47761;BME280;33524;55.434;38.520;2023-06-01T07:28:54;99842.09;;;24.23;43.76
47761;BME280;33524;55.434;38.520;2023-06-01T07:31:24;99839.59;;;21.39;40.97
47761;BME280;33524;55.434;38.520;2023-06-01T07:33:52;99838.81;;;23.43;32.36
47761;BME280;33524;55.434;38.520;2023-06-01T07:36:22;99823.16;;;25.32;46.11
47761;BME280;33524;55.434;38.520;2023-06-01T07:38:50;99829.81;;;23.95;33.80
47761;BME280;33524;55.434;38.520;2023-06-01T07:41:19;99833.22;;;24.61;41.58
47761;BME280;33524;55.434;38.520;2023-06-01T07:43:48;99836.84;;;24.42;38.78
47761;BME280;33524;55.434;38.520;2023-06-01T07:46:16;99830.94;;;21.36;37.42
47761;BME280;33524;55.434;38.520;2023-06-01T07:48:44;99829.38;;;24.44;31.88
47761;BME280;33524;55.434;38.520;2023-06-01T07:51:12;99825.13;;;21.89;35.98
47761;BME280;33524;55.434;38.520;2023-06-01T07:53:41;99827.06;;;23.30;44.41
47761;BME280;33524;55.434;38.520;2023-06-01T07:56:09;99823.22;;;23.98;39.23
47761;BME280;33524;55.434;38.520;2023-06-01T07:58:37;99821.34;;;23.99;40.73
47761;BME280;33524;55.434;38.520;2023-06-01T08:01:05;99810.44;;;23.67;44.02
47761;BME280;33524;55.434;38.520;2023-06-01T08:03:34;99808.25;;;27.53;41.36
47761;BME280;33524;55.434;38.520;2023-06-01T08:06:03;99804.53;;;28.35;38.32
47761;BME280;33524;55.434;38.520;2023-06-01T08:08:33;99800.28;;;26.99;40.08
47761;BME280;33524;55.434;38.520;2023-06-01T08:11:02;99806.34;;;26.71;31.46
47761;BME280;33524;55.434;38.520;2023-06-01T08:13:30;99795.41;;;26.24;29.68
47761;BME280;33524;55.434;38.520;2023-06-01T08:15:58;99809.16;;;23.89;32.88
47761;BME280;33524;55.434;38.520;2023-06-01T08:18:39;99797.34;;;26.89;41.79
47761;BME280;33524;55.434;38.520;2023-06-01T08:21:09;99789.22;;;27.71;30.40
47761;BME280;33524;55.434;38.520;2023-06-01T08:23:37;99778.06;;;26.31;32.09
47761;BME280;33524;55.434;38.520;2023-06-01T08:26:06;99777.88;;;28.72;38.00
47761;BME280;33524;55.434;38.520;2023-06-01T08:28:34;99790.00;;;27.84;32.09
47761;BME280;33524;55.434;38.520;2023-06-01T08:31:02;99794.72;;;26.28;30.44
47761;BME280;33524;55.434;38.520;2023-06-01T08:33:31;99785.19;;;27.74;38.07
47761;BME280;33524;55.434;38.520;2023-06-01T08:35:59;99792.88;;;24.93;30.90
47761;BME280;33524;55.434;38.520;2023-06-01T08:38:27;99781.06;;;24.30;43.20
47761;BME280;33524;55.434;38.520;2023-06-01T08:41:04;99785.94;;;26.87;37.94
47761;BME280;33524;55.434;38.520;2023-06-01T08:43:36;99782.06;;;25.80;31.56
47761;BME280;33524;55.434;38.520;2023-06-01T08:46:07;99783.72;;;26.42;38.76
47761;BME280;33524;55.434;38.520;2023-06-01T08:48:36;99780.69;;;26.80;29.76
47761;BME280;33524;55.434;38.520;2023-06-01T08:51:06;99771.09;;;28.41;30.14
47761;BME280;33524;55.434;38.520;2023-06-01T08:53:34;99770.59;;;26.99;32.51
47761;BME280;33524;55.434;38.520;2023-06-01T08:56:04;99780.28;;;25.12;41.82
47761;BME280;33524;55.434;38.520;2023-06-01T08:58:32;99765.97;;;28.90;35.97
47761;BME280;33524;55.434;38.520;2023-06-01T09:01:19;99774.72;;;26.48;37.33
47761;BME280;33524;55.434;38.520;2023-06-01T09:03:51;99768.88;;;26.09;40.21
47761;BME280;33524;55.434;38.520;2023-06-01T09:06:19;99770.69;;;25.96;38.94
47761;BME280;33524;55.434;38.520;2023-06-01T09:08:47;99761.56;;;26.40;31.62
47761;BME280;33524;55.434;38.520;2023-06-01T09:11:15;99765.31;;;27.16;30.34
47761;BME280;33524;55.434;38.520;2023-06-01T09:13:56;99754.19;;;27.12;33.49
47761;BME280;33524;55.434;38.520;2023-06-01T09:16:44;99745.50;;;28.77;26.42
47761;BME280;33524;55.434;38.520;2023-06-01T09:19:12;99757.56;;;28.24;35.37
47761;BME280;33524;55.434;38.520;2023-06-01T09:21:59;99759.44;;;27.54;27.41
47761;BME280;33524;55.434;38.520;2023-06-01T09:24:27;99743.97;;;29.21;25.76
47761;BME280;33524;55.434;38.520;2023-06-01T09:27:00;99744.19;;;25.93;33.29
47761;BME280;33524;55.434;38.520;2023-06-01T09:29:30;99753.16;;;23.41;32.11
47761;BME280;33524;55.434;38.520;2023-06-01T09:31:59;99740.56;;;28.57;31.92
47761;BME280;33524;55.434;38.520;2023-06-01T09:34:28;99750.75;;;26.70;35.85
47761;BME280;33524;55.434;38.520;2023-06-01T09:37:05;99726.75;;;28.25;34.97
47761;BME280;33524;55.434;38.520;2023-06-01T09:39:35;99734.22;;;26.66;28.00
47761;BME280;33524;55.434;38.520;2023-06-01T09:42:04;99752.53;;;23.97;30.82
47761;BME280;33524;55.434;38.520;2023-06-01T09:44:36;99753.53;;;23.51;32.13
47761;BME280;33524;55.434;38.520;2023-06-01T09:47:15;99743.50;;;25.06;35.13
47761;BME280;33524;55.434;38.520;2023-06-01T09:49:44;99744.72;;;25.65;27.53
47761;BME280;33524;55.434;38.520;2023-06-01T09:52:14;99745.88;;;24.95;33.04
47761;BME280;33524;55.434;38.520;2023-06-01T09:54:47;99732.44;;;27.43;26.07
47761;BME280;33524;55.434;38.520;2023-06-01T09:57:27;99738.38;;;25.96;28.78
47761;BME280;33524;55.434;38.520;2023-06-01T09:59:57;99734.53;;;24.36;35.36
47761;BME280;33524;55.434;38.520;2023-06-01T10:02:26;99731.47;;;24.65;39.83
47761;BME280;33524;55.434;38.520;2023-06-01T10:04:55;99718.41;;;26.82;34.77
47761;BME280;33524;55.434;38.520;2023-06-01T10:07:30;99720.19;;;25.18;30.21
47761;BME280;33524;55.434;38.520;2023-06-01T10:09:59;99716.50;;;28.44;27.20
47761;BME280;33524;55.434;38.520;2023-06-01T10:12:27;99727.06;;;26.18;27.57
47761;BME280;33524;55.434;38.520;2023-06-01T10:14:57;99716.25;;;25.57;30.33
47761;BME280;33524;55.434;38.520;2023-06-01T10:17:26;99714.06;;;24.67;27.89
47761;BME280;33524;55.434;38.520;2023-06-01T10:19:55;99713.38;;;22.98;34.69
47761;BME280;33524;55.434;38.520;2023-06-01T10:22:24;99707.16;;;24.53;30.92
47761;BME280;33524;55.434;38.520;2023-06-01T10:24:58;99708.16;;;26.48;30.14
47761;BME280;33524;55.434;38.520;2023-06-01T10:27:38;99714.66;;;26.71;27.12
47761;BME280;33524;55.434;38.520;2023-06-01T10:30:11;99703.06;;;26.28;26.84
47761;BME280;33524;55.434;38.520;2023-06-01T10:32:45;99701.94;;;26.06;27.93
47761;BME280;33524;55.434;38.520;2023-06-01T10:40:43;99698.59;;;26.22;37.29
47761;BME280;33524;55.434;38.520;2023-06-01T10:46:35;99701.28;;;24.31;29.94
47761;BME280;33524;55.434;38.520;2023-06-01T10:49:04;99702.84;;;24.13;29.75
47761;BME280;33524;55.434;38.520;2023-06-01T10:51:33;99694.44;;;24.35;28.54
47761;BME280;33524;55.434;38.520;2023-06-01T10:54:24;99694.34;;;26.03;37.49
47761;BME280;33524;55.434;38.520;2023-06-01T10:57:22;99693.84;;;27.18;33.95
47761;BME280;33524;55.434;38.520;2023-06-01T11:00:22;99691.97;;;25.94;27.44
47761;BME280;33524;55.434;38.520;2023-06-01T11:02:55;99689.53;;;26.94;26.79
47761;BME280;33524;55.434;38.520;2023-06-01T11:05:45;99688.84;;;26.63;27.02
47761;BME280;33524;55.434;38.520;2023-06-01T11:18:49;99689.22;;;24.15;30.13
47761;BME280;33524;55.434;38.520;2023-06-01T11:24:13;99686.31;;;24.92;28.89
47761;BME280;33524;55.434;38.520;2023-06-01T11:26:46;99685.81;;;26.17;34.56
47761;BME280;33524;55.434;38.520;2023-06-01T11:29:24;99677.69;;;25.75;31.94
47761;BME280;33524;55.434;38.520;2023-06-01T11:31:57;99680.41;;;24.83;28.80
47761;BME280;33524;55.434;38.520;2023-06-01T11:34:35;99669.66;;;27.12;26.99
47761;BME280;33524;55.434;38.520;2023-06-01T11:37:06;99675.50;;;25.84;27.08
47761;BME280;33524;55.434;38.520;2023-06-01T11:39:41;99672.72;;;25.05;30.50
47761;BME280;33524;55.434;38.520;2023-06-01T11:42:12;99659.06;;;25.92;27.37
47761;BME280;33524;55.434;38.520;2023-06-01T11:44:41;99648.78;;;28.51;31.30
47761;BME280;33524;55.434;38.520;2023-06-01T11:47:11;99665.06;;;27.36;26.95
47761;BME280;33524;55.434;38.520;2023-06-01T11:49:47;99653.84;;;25.61;26.54
47761;BME280;33524;55.434;38.520;2023-06-01T11:52:18;99646.47;;;25.86;27.11
47761;BME280;33524;55.434;38.520;2023-06-01T11:54:47;99660.16;;;25.85;29.50
47761;BME280;33524;55.434;38.520;2023-06-01T11:57:15;99644.47;;;25.14;28.10
47761;BME280;33524;55.434;38.520;2023-06-01T11:59:46;99653.38;;;25.82;27.60
47761;BME280;33524;55.434;38.520;2023-06-01T12:02:22;99652.06;;;25.54;27.60
47761;BME280;33524;55.434;38.520;2023-06-01T12:04:56;99652.84;;;25.43;27.61
47761;BME280;33524;55.434;38.520;2023-06-01T12:07:26;99646.38;;;25.63;28.22
47761;BME280;33524;55.434;38.520;2023-06-01T12:09:55;99643.75;;;26.05;27.23
47761;BME280;33524;55.434;38.520;2023-06-01T12:12:25;99649.84;;;26.12;26.36
47761;BME280;33524;55.434;38.520;2023-06-01T12:14:53;99635.09;;;26.26;25.59
47761;BME280;33524;55.434;38.520;2023-06-01T12:17:22;99645.91;;;27.49;26.00
47761;BME280;33524;55.434;38.520;2023-06-01T12:19:50;99638.72;;;27.14;25.20
47761;BME280;33524;55.434;38.520;2023-06-01T12:22:19;99630.34;;;27.28;24.54
47761;BME280;33524;55.434;38.520;2023-06-01T12:24:47;99630.50;;;27.78;23.85
47761;BME280;33524;55.434;38.520;2023-06-01T12:27:18;99630.13;;;29.10;22.64
47761;BME280;33524;55.434;38.520;2023-06-01T12:29:49;99637.44;;;28.20;23.11
47761;BME280;33524;55.434;38.520;2023-06-01T12:32:19;99637.00;;;27.94;23.39
47761;BME280;33524;55.434;38.520;2023-06-01T12:35:04;99634.47;;;28.05;23.45
47761;BME280;33524;55.434;38.520;2023-06-01T12:37:34;99639.56;;;28.01;24.14
47761;BME280;33524;55.434;38.520;2023-06-01T12:40:02;99624.66;;;28.32;25.87
47761;BME280;33524;55.434;38.520;2023-06-01T12:42:37;99627.28;;;28.27;23.11
47761;BME280;33524;55.434;38.520;2023-06-01T12:45:07;99624.28;;;29.02;24.68
47761;BME280;33524;55.434;38.520;2023-06-01T12:47:42;99626.72;;;28.81;23.25
47761;BME280;33524;55.434;38.520;2023-06-01T12:50:11;99630.31;;;28.14;24.29
47761;BME280;33524;55.434;38.520;2023-06-01T12:52:41;99619.25;;;27.70;23.63
47761;BME280;33524;55.434;38.520;2023-06-01T12:55:12;99620.97;;;27.59;24.06
47761;BME280;33524;55.434;38.520;2023-06-01T12:57:40;99622.03;;;28.71;23.92
47761;BME280;33524;55.434;38.520;2023-06-01T13:00:08;99617.56;;;29.04;23.02
47761;BME280;33524;55.434;38.520;2023-06-01T13:02:37;99607.00;;;29.03;23.57
47761;BME280;33524;55.434;38.520;2023-06-01T13:05:06;99613.13;;;29.91;23.34
47761;BME280;33524;55.434;38.520;2023-06-01T13:07:34;99608.53;;;29.65;22.43
47761;BME280;33524;55.434;38.520;2023-06-01T13:10:03;99611.44;;;29.85;22.01
47761;BME280;33524;55.434;38.520;2023-06-01T13:12:32;99613.47;;;27.78;22.94
47761;BME280;33524;55.434;38.520;2023-06-01T13:15:17;99624.97;;;25.68;25.65
47761;BME280;33524;55.434;38.520;2023-06-01T13:17:45;99620.47;;;26.69;23.88
47761;BME280;33524;55.434;38.520;2023-06-01T13:20:14;99611.63;;;28.29;23.50
47761;BME280;33524;55.434;38.520;2023-06-01T13:22:44;99610.09;;;29.33;22.58
47761;BME280;33524;55.434;38.520;2023-06-01T13:25:12;99606.63;;;29.65;21.99
47761;BME280;33524;55.434;38.520;2023-06-01T13:28:02;99616.12;;;29.68;21.71
47761;BME280;33524;55.434;38.520;2023-06-01T13:30:31;99611.16;;;30.14;21.59
47761;BME280;33524;55.434;38.520;2023-06-01T13:33:01;99608.91;;;30.06;21.74
47761;BME280;33524;55.434;38.520;2023-06-01T13:35:30;99608.03;;;30.32;21.47
47761;BME280;33524;55.434;38.520;2023-06-01T13:37:58;99608.50;;;30.62;21.54
47761;BME280;33524;55.434;38.520;2023-06-01T13:40:27;99608.28;;;30.73;20.97
47761;BME280;33524;55.434;38.520;2023-06-01T13:42:55;99598.16;;;30.21;21.02